Time;durP1;ratioP1;P1;durP2;ratioP2;P2;SDS_P1;SDS_P2;PMS_P1;PMS_P2;Temp;Humidity;BMP_temperature;BMP_pressure;BME280_temperature;BME280_humidity;BME280_pressure;Samples;Min_cycle;Max_cycle;Signal;HPM_P1;HPM_P2
2023/04/06 00:00:10;;;;;;;7.47;2.78;;;;;;;9.79;76.42;99920.03;4981728;28;20121;-52
2023/04/06 00:02:36;;;;;;;7.60;3.22;;;;;;;9.76;76.22;99911.41;4983539;28;20497;-52
2023/04/06 00:05:03;;;;;;;6.03;2.80;;;;;;;9.77;76.45;99913.13;4984469;28;20046;-53
2023/04/06 00:07:30;;;;;;;5.70;2.22;;;;;;;9.77;76.61;99913.13;4982166;28;20058;-54
2023/04/06 00:09:56;;;;;;;7.60;4.63;;;;;;;9.78;76.60;99914.00;4982260;28;20382;-51
2023/04/06 00:12:23;;;;;;;7.95;3.78;;;;;;;9.77;76.46;99907.94;4986437;28;20078;-50
2023/04/06 00:14:50;;;;;;;8.55;3.40;;;;;;;9.79;76.46;99905.34;4984585;28;20050;-49
2023/04/06 00:17:17;;;;;;;7.18;3.20;;;;;;;9.77;76.77;99905.34;4985822;28;20050;-57
2023/04/06 00:19:43;;;;;;;7.32;3.97;;;;;;;9.77;76.79;99907.94;4978810;28;20465;-57
2023/04/06 00:22:10;;;;;;;6.45;3.22;;;;;;;9.78;76.74;99903.63;4982149;28;20137;-58
2023/04/06 00:24:36;;;;;;;7.72;2.85;;;;;;;9.79;76.53;99897.59;4983617;28;20057;-58
2023/04/06 00:27:03;;;;;;;7.68;3.17;;;;;;;9.79;76.53;99895.00;4985315;28;20498;-56
2023/04/06 00:29:30;;;;;;;6.80;2.70;;;;;;;9.80;76.57;99885.53;4984728;28;20090;-54
2023/04/06 00:31:56;;;;;;;7.13;2.85;;;;;;;9.80;76.57;99891.59;4983815;28;20092;-57
2023/04/06 00:34:23;;;;;;;9.52;4.65;;;;;;;9.80;76.80;99888.13;4981328;28;20046;-50
2023/04/06 00:36:49;;;;;;;6.53;2.88;;;;;;;9.79;76.71;99878.66;4984053;28;20125;-57
2023/04/06 00:39:16;;;;;;;7.57;3.53;;;;;;;9.80;76.51;99880.38;4978701;28;20498;-54
2023/04/06 00:41:50;;;;;;;7.55;2.47;;;;;;;9.81;76.50;99877.78;4982897;28;20042;-57
2023/04/06 00:44:17;;;;;;;6.78;2.60;;;;;;;9.82;76.81;99874.31;4982246;28;20081;-53
2023/04/06 00:46:44;;;;;;;8.55;4.10;;;;;;;9.82;76.47;99869.16;4985329;28;20158;-54
2023/04/06 00:49:11;;;;;;;7.47;3.35;;;;;;;9.83;76.50;99870.00;4982820;28;20579;-52
2023/04/06 00:51:38;;;;;;;7.97;3.70;;;;;;;9.82;77.13;99857.91;4986217;28;20051;-54
2023/04/06 00:54:05;;;;;;;6.95;2.83;;;;;;;9.84;76.49;99861.38;4982573;28;20105;-59
2023/04/06 00:56:32;;;;;;;7.68;4.65;;;;;;;9.83;76.83;99854.50;4986356;28;20128;-56
2023/04/06 00:58:58;;;;;;;5.20;2.22;;;;;;;9.82;76.65;99852.75;4985170;28;20108;-51
2023/04/06 01:01:25;;;;;;;6.15;2.58;;;;;;;9.85;76.40;99852.75;4984330;28;20038;-54
2023/04/06 01:03:52;;;;;;;7.22;2.42;;;;;;;9.81;77.02;99851.91;4979540;28;20059;-54
2023/04/06 01:06:19;;;;;;;7.68;2.42;;;;;;;9.82;76.89;99847.56;4998926;28;20038;-55
2023/04/06 01:08:46;;;;;;;9.15;5.30;;;;;;;9.84;76.31;99851.91;4983401;28;20042;-58
2023/04/06 01:11:13;;;;;;;7.13;2.58;;;;;;;9.83;77.33;99841.56;4985005;28;20074;-56
2023/04/06 01:13:39;;;;;;;7.07;2.83;;;;;;;9.85;76.96;99843.28;4985574;28;20097;-57
2023/04/06 01:16:06;;;;;;;6.60;2.65;;;;;;;9.84;77.52;99835.50;4985448;28;20046;-56
2023/04/06 01:18:33;;;;;;;6.80;2.92;;;;;;;9.84;77.17;99835.50;4984504;28;20050;-52
2023/04/06 01:21:01;;;;;;;6.88;2.92;;;;;;;9.81;77.03;99835.50;4985227;28;20586;-57
2023/04/06 01:23:27;;;;;;;6.30;3.05;;;;;;;9.82;77.01;99825.16;4984241;28;20421;-54
2023/04/06 01:25:54;;;;;;;7.55;2.95;;;;;;;9.81;77.05;99825.16;4986356;28;20050;-55
2023/04/06 01:28:21;;;;;;;7.85;3.08;;;;;;;9.81;77.44;99820.88;4986284;28;20078;-54
2023/04/06 01:30:47;;;;;;;6.00;3.05;;;;;;;9.81;77.13;99820.00;4986524;28;20081;-51
2023/04/06 01:33:14;;;;;;;6.93;2.30;;;;;;;9.80;77.09;99818.28;4981802;28;20526;-58
2023/04/06 01:35:41;;;;;;;7.95;3.00;;;;;;;9.77;77.51;99807.06;4985259;28;20050;-56
2023/04/06 01:38:07;;;;;;;7.80;3.15;;;;;;;9.80;77.23;99813.97;4982647;28;20127;-56
2023/04/06 01:40:34;;;;;;;6.70;3.30;;;;;;;9.81;77.22;99799.31;4985829;28;20062;-56
2023/04/06 01:43:01;;;;;;;8.45;3.13;;;;;;;9.82;77.20;99801.03;4986910;28;20046;-54
2023/04/06 01:45:27;;;;;;;10.38;3.60;;;;;;;9.85;76.85;99801.00;4978074;28;20580;-57
2023/04/06 01:47:54;;;;;;;8.00;3.38;;;;;;;9.85;77.73;99801.00;4987096;28;20112;-56
2023/04/06 01:50:21;;;;;;;10.00;4.55;;;;;;;9.84;77.32;99792.41;4983250;28;20133;-54
2023/04/06 01:52:47;;;;;;;7.97;3.65;;;;;;;9.87;76.93;99794.13;4987881;28;20046;-49
2023/04/06 01:55:14;;;;;;;8.98;4.38;;;;;;;9.86;77.37;99787.22;4984901;28;20077;-57
2023/04/06 01:57:40;;;;;;;9.40;4.22;;;;;;;9.85;77.51;99793.25;4986876;28;20399;-53
2023/04/06 02:00:12;;;;;;;8.82;3.90;;;;;;;9.86;77.25;99792.41;4985434;28;20538;-52
2023/04/06 02:02:38;;;;;;;5.85;3.13;;;;;;;9.84;78.14;99783.78;4983972;28;20074;-57
2023/04/06 02:05:05;;;;;;;6.68;2.22;;;;;;;9.77;78.13;99794.13;4980616;28;20054;-52
2023/04/06 02:07:32;;;;;;;9.32;3.72;;;;;;;9.82;77.72;99775.16;4986038;28;20054;-55
2023/04/06 02:09:59;;;;;;;8.65;4.00;;;;;;;9.84;77.87;99781.19;4984767;28;20085;-53
2023/04/06 02:12:25;;;;;;;8.52;3.70;;;;;;;9.85;77.15;99780.31;4980211;28;20046;-59
2023/04/06 02:14:52;;;;;;;7.95;3.30;;;;;;;9.84;77.28;99773.44;4985236;28;20152;-54
2023/04/06 02:17:19;;;;;;;9.20;3.83;;;;;;;9.82;77.86;99777.72;4985044;28;20050;-54
2023/04/06 02:19:45;;;;;;;6.90;2.58;;;;;;;9.81;77.74;99773.44;4984024;28;20054;-55
2023/04/06 02:22:12;;;;;;;9.00;3.53;;;;;;;9.82;77.34;99768.25;4982585;28;20116;-56
2023/04/06 02:24:39;;;;;;;7.47;2.88;;;;;;;9.81;77.78;99768.25;4976020;28;20691;-54
2023/04/06 02:27:05;;;;;;;8.20;3.72;;;;;;;9.83;77.44;99766.53;4981970;28;20166;-57
2023/04/06 02:29:32;;;;;;;7.72;2.95;;;;;;;9.83;77.78;99761.38;4984384;28;20124;-54
2023/04/06 02:31:59;;;;;;;7.35;2.80;;;;;;;9.84;77.68;99755.31;4984297;28;20749;-49
2023/04/06 02:34:26;;;;;;;6.65;3.10;;;;;;;9.85;77.62;99754.44;4986926;28;20065;-56
2023/04/06 02:36:52;;;;;;;7.85;4.50;;;;;;;9.84;77.59;99752.75;4986776;28;20086;-57
2023/04/06 02:39:19;;;;;;;6.38;2.70;;;;;;;9.87;78.00;99752.72;4982191;28;20499;-53
2023/04/06 02:41:45;;;;;;;6.13;3.78;;;;;;;9.87;77.64;99742.38;4968193;28;20135;-53
2023/04/06 02:44:12;;;;;;;7.57;2.20;;;;;;;9.88;77.53;99738.91;4983480;28;20777;-54
2023/04/06 02:46:39;;;;;;;3.78;1.98;;;;;;;9.86;77.81;99741.50;4985123;28;20046;-55
2023/04/06 02:49:05;;;;;;;5.25;3.65;;;;;;;9.89;77.53;99738.03;4981923;28;20062;-51
2023/04/06 02:51:33;;;;;;;4.82;2.22;;;;;;;9.90;77.63;99739.78;4981105;28;20054;-54
2023/04/06 02:53:59;;;;;;;6.15;2.63;;;;;;;9.90;77.43;99742.38;4984256;28;20498;-54
2023/04/06 02:56:26;;;;;;;6.15;2.13;;;;;;;9.90;78.00;99742.38;4982674;28;20046;-52
2023/04/06 02:58:53;;;;;;;6.47;3.92;;;;;;;9.90;77.78;99727.69;4984399;28;20062;-56
2023/04/06 03:01:20;;;;;;;5.93;2.22;;;;;;;9.91;77.75;99728.56;4984458;28;20046;-56
2023/04/06 03:03:46;;;;;;;6.10;2.65;;;;;;;9.91;77.86;99728.56;4984194;28;20058;-51
2023/04/06 03:06:13;;;;;;;7.43;3.03;;;;;;;9.90;77.87;99719.09;4983540;28;20050;-58
2023/04/06 03:08:40;;;;;;;10.40;3.38;;;;;;;9.92;77.82;99722.50;4981955;28;20121;-52
2023/04/06 03:11:06;;;;;;;6.18;2.45;;;;;;;9.93;77.79;99721.63;4983537;28;20499;-53
2023/04/06 03:13:33;;;;;;;9.75;3.33;;;;;;;9.95;77.65;99719.03;4983537;28;20101;-55
2023/04/06 03:16:00;;;;;;;8.27;3.55;;;;;;;9.94;77.74;99718.22;4980939;28;20074;-48
2023/04/06 03:18:26;;;;;;;9.45;3.45;;;;;;;9.94;77.99;99713.03;4982814;28;20050;-56
2023/04/06 03:20:54;;;;;;;9.35;4.53;;;;;;;9.95;77.25;99709.56;4980021;28;20133;-50
2023/04/06 03:23:21;;;;;;;8.55;4.13;;;;;;;9.96;78.03;99708.69;4982241;28;20050;-55
2023/04/06 03:25:47;;;;;;;10.00;4.10;;;;;;;9.97;77.66;99710.41;4983047;28;20042;-50
2023/04/06 03:28:15;;;;;;;11.10;5.63;;;;;;;9.96;78.15;99703.53;4982182;28;20514;-54
2023/04/06 03:30:42;;;;;;;9.70;3.58;;;;;;;9.98;77.57;99709.56;4976811;28;20062;-49
2023/04/06 03:33:09;;;;;;;9.43;3.17;;;;;;;9.98;77.45;99699.22;4968325;28;20108;-53
2023/04/06 03:35:36;;;;;;;9.90;3.95;;;;;;;9.99;77.41;99700.03;4967001;28;20047;-55
2023/04/06 03:38:04;;;;;;;15.13;5.95;;;;;;;10.00;77.57;99697.47;4984215;28;20047;-53
2023/04/06 03:40:31;;;;;;;9.40;3.42;;;;;;;10.00;77.63;99697.47;4986651;28;20100;-60
2023/04/06 03:42:58;;;;;;;10.93;3.92;;;;;;;10.01;78.45;99704.38;4986064;28;20872;-57
2023/04/06 03:45:24;;;;;;;11.98;4.55;;;;;;;10.02;77.61;99703.50;4985526;28;20042;-53
2023/04/06 03:47:51;;;;;;;12.55;4.25;;;;;;;10.01;78.47;99699.19;4986189;28;20074;-59
2023/04/06 03:50:18;;;;;;;11.10;4.68;;;;;;;9.98;78.95;99691.44;4983705;28;20125;-52
2023/04/06 03:52:44;;;;;;;8.95;3.78;;;;;;;9.97;79.17;99679.34;4985312;28;20046;-58
2023/04/06 03:55:11;;;;;;;11.90;4.15;;;;;;;10.00;78.22;99691.44;4984655;28;20166;-52
2023/04/06 03:57:38;;;;;;;9.98;4.22;;;;;;;9.99;79.00;99680.22;4986433;28;20518;-55
2023/04/06 04:00:05;;;;;;;10.88;4.32;;;;;;;9.99;78.87;99679.34;4984255;28;20065;-51
2023/04/06 04:02:32;;;;;;;7.95;3.45;;;;;;;9.96;79.23;99674.22;4986836;28;20121;-52
2023/04/06 04:04:58;;;;;;;11.23;4.00;;;;;;;9.98;79.02;99675.91;4982546;28;20061;-56
2023/04/06 04:07:25;;;;;;;10.73;4.40;;;;;;;10.00;78.76;99671.59;4978080;28;20553;-52
2023/04/06 04:09:51;;;;;;;15.70;4.43;;;;;;;10.02;78.51;99666.41;4979708;28;20506;-55
2023/04/06 04:12:18;;;;;;;9.60;4.38;;;;;;;10.03;78.73;99661.22;4982276;28;20065;-54
2023/04/06 04:14:45;;;;;;;10.45;4.40;;;;;;;10.05;78.69;99657.75;4982433;28;20074;-57
2023/04/06 04:17:11;;;;;;;12.77;4.65;;;;;;;10.07;79.04;99668.97;4980948;28;20088;-53
2023/04/06 04:19:38;;;;;;;11.25;4.63;;;;;;;10.08;78.96;99657.72;4981487;28;20045;-53
2023/04/06 04:22:05;;;;;;;12.35;4.85;;;;;;;10.10;78.20;99650.84;4978744;28;20078;-54
2023/04/06 04:24:32;;;;;;;11.65;4.10;;;;;;;10.13;78.12;99648.19;4981379;28;20050;-51
2023/04/06 04:27:00;;;;;;;11.80;4.85;;;;;;;10.15;78.66;99643.88;4981160;28;20537;-57
2023/04/06 04:29:27;;;;;;;11.32;4.22;;;;;;;10.16;78.69;99645.59;4979228;28;20042;-52
2023/04/06 04:31:53;;;;;;;12.77;7.07;;;;;;;10.17;78.24;99652.50;4983849;28;20046;-52
2023/04/06 04:34:20;;;;;;;10.35;3.80;;;;;;;10.16;78.12;99651.66;4982511;28;20060;-57
2023/04/06 04:36:47;;;;;;;7.47;3.15;;;;;;;10.16;78.11;99656.81;4982382;28;20061;-55
2023/04/06 04:39:13;;;;;;;11.63;4.50;;;;;;;10.19;78.54;99655.94;4978777;28;20418;-53
2023/04/06 04:41:40;;;;;;;14.32;4.90;;;;;;;10.20;78.54;99660.22;4982599;28;20046;-50
2023/04/06 04:44:06;;;;;;;11.45;4.90;;;;;;;10.20;78.14;99662.81;4984084;28;20101;-49
2023/04/06 04:46:33;;;;;;;12.43;6.47;;;;;;;10.20;78.30;99657.63;4981546;28;20361;-55
2023/04/06 04:49:00;;;;;;;12.88;4.93;;;;;;;10.21;78.82;99646.44;4983034;28;20649;-57
2023/04/06 04:51:26;;;;;;;12.30;4.72;;;;;;;10.21;78.62;99659.38;4987445;28;20098;-57
2023/04/06 04:53:53;;;;;;;13.57;8.43;;;;;;;10.23;78.51;99661.97;4990108;28;20100;-51
2023/04/06 04:56:20;;;;;;;13.52;6.05;;;;;;;10.22;78.24;99655.91;4990295;28;20058;-49
2023/04/06 04:58:46;;;;;;;13.50;4.57;;;;;;;10.23;78.07;99651.59;4990356;28;20042;-60
2023/04/06 05:01:13;;;;;;;12.52;4.95;;;;;;;10.24;78.16;99653.31;4985903;28;20046;-55
2023/04/06 05:03:39;;;;;;;14.13;6.35;;;;;;;10.23;78.70;99647.28;4987535;28;20046;-52
2023/04/06 05:06:06;;;;;;;11.38;4.68;;;;;;;10.22;78.78;99650.75;4987410;28;20479;-57
2023/04/06 05:08:33;;;;;;;10.75;3.80;;;;;;;10.23;78.07;99642.09;4987850;28;20100;-50
2023/04/06 05:11:00;;;;;;;12.65;4.18;;;;;;;10.23;78.73;99647.28;4989256;28;20042;-48
2023/04/06 05:13:26;;;;;;;15.57;4.70;;;;;;;10.23;78.40;99652.44;4987100;28;20658;-51
2023/04/06 05:15:53;;;;;;;11.88;5.53;;;;;;;10.24;78.49;99648.97;4988459;28;20074;-55
2023/04/06 05:18:20;;;;;;;11.57;4.97;;;;;;;10.24;78.24;99643.81;4986770;28;20046;-58
2023/04/06 05:20:47;;;;;;;13.07;4.47;;;;;;;10.21;79.21;99643.84;4982343;28;20137;-53
2023/04/06 05:23:13;;;;;;;12.93;5.00;;;;;;;10.20;78.68;99647.28;4965179;28;20657;-51
2023/04/06 05:25:40;;;;;;;13.02;5.00;;;;;;;10.21;78.42;99643.84;4965340;28;20054;-51
2023/04/06 05:28:07;;;;;;;13.88;6.65;;;;;;;10.20;78.79;99644.69;4982911;28;20505;-56
2023/04/06 05:30:35;;;;;;;11.10;4.25;;;;;;;10.20;78.46;99639.53;4988806;28;20074;-54
2023/04/06 05:33:02;;;;;;;13.07;4.43;;;;;;;10.21;78.21;99649.03;4981951;28;20038;-56
2023/04/06 05:35:29;;;;;;;13.98;4.80;;;;;;;10.20;78.75;99649.88;4981723;28;20050;-55
2023/04/06 05:37:55;;;;;;;12.90;4.50;;;;;;;10.19;78.52;99661.09;4984651;28;20049;-58
2023/04/06 05:40:22;;;;;;;10.07;4.50;;;;;;;10.18;78.63;99659.41;4987421;28;20085;-50
2023/04/06 05:42:49;;;;;;;15.38;5.78;;;;;;;10.19;78.82;99668.88;4985900;28;20648;-56
2023/04/06 05:45:18;;;;;;;12.18;4.65;;;;;;;10.19;78.66;99666.28;4983298;28;20576;-49
2023/04/06 05:47:45;;;;;;;13.85;5.20;;;;;;;10.18;78.69;99661.97;4985952;28;20564;-55
2023/04/06 05:50:14;;;;;;;11.13;4.22;;;;;;;10.17;79.06;99662.88;4982849;28;20082;-52
2023/04/06 05:52:42;;;;;;;12.27;6.22;;;;;;;10.16;79.10;99655.94;4982752;28;20502;-58
2023/04/06 05:55:10;;;;;;;15.25;6.32;;;;;;;10.16;79.39;99655.94;4987496;28;20666;-58
2023/04/06 05:57:37;;;;;;;11.35;4.00;;;;;;;10.15;78.89;99654.25;4985585;28;20650;-57
2023/04/06 06:00:08;;;;;;;11.02;3.92;;;;;;;10.17;79.26;99647.34;4979315;28;20055;-56
2023/04/06 06:02:35;;;;;;;12.27;4.43;;;;;;;10.20;78.82;99652.47;4984959;28;20101;-56
2023/04/06 06:05:02;;;;;;;10.35;4.45;;;;;;;10.22;78.99;99655.91;4985457;28;20058;-54
2023/04/06 06:07:28;;;;;;;11.70;4.38;;;;;;;10.23;78.88;99652.44;4985650;28;20046;-60
2023/04/06 06:09:57;;;;;;;10.05;5.10;;;;;;;10.25;78.75;99645.53;4984654;28;20038;-51
2023/04/06 06:12:24;;;;;;;11.23;4.00;;;;;;;10.25;78.63;99645.53;4985367;28;20058;-52
2023/04/06 06:14:51;;;;;;;13.85;4.53;;;;;;;10.27;78.39;99654.13;4979015;28;20058;-54
2023/04/06 06:17:18;;;;;;;9.52;3.70;;;;;;;10.32;78.95;99650.66;4981185;28;20050;-52
2023/04/06 06:19:44;;;;;;;12.73;4.53;;;;;;;10.31;78.93;99644.63;4985297;28;20116;-49
2023/04/06 06:22:11;;;;;;;14.63;6.70;;;;;;;10.33;78.79;99652.41;4979633;28;20384;-52
2023/04/06 06:24:38;;;;;;;10.35;4.82;;;;;;;10.34;78.92;99652.34;4973270;28;20667;-53
2023/04/06 06:27:04;;;;;;;12.93;5.57;;;;;;;10.35;78.68;99656.69;4965692;28;20143;-53
2023/04/06 06:29:31;;;;;;;11.90;3.83;;;;;;;10.38;78.60;99658.38;4959496;28;20672;-57
2023/04/06 06:31:58;;;;;;;10.73;3.83;;;;;;;10.37;78.48;99648.91;4963800;28;20668;-53
2023/04/06 06:34:25;;;;;;;10.32;4.13;;;;;;;10.39;77.95;99653.19;4968561;28;20069;-56
2023/04/06 06:36:54;;;;;;;10.57;5.78;;;;;;;10.39;78.53;99653.19;4961909;28;20905;-55
2023/04/06 06:39:21;;;;;;;10.73;3.80;;;;;;;10.40;78.75;99649.72;4966266;28;20057;-50
2023/04/06 06:41:48;;;;;;;10.43;3.92;;;;;;;10.41;78.18;99648.00;4966694;28;20125;-53
2023/04/06 06:44:16;;;;;;;12.57;5.88;;;;;;;10.42;78.78;99647.13;4983655;28;20133;-52
2023/04/06 06:46:43;;;;;;;8.98;5.18;;;;;;;10.40;78.88;99639.38;4966592;28;20085;-51
2023/04/06 06:49:12;;;;;;;10.68;4.05;;;;;;;10.44;78.40;99645.41;4973827;28;20109;-49
2023/04/06 06:51:38;;;;;;;9.85;4.20;;;;;;;10.44;78.87;99650.56;4963658;28;20057;-53
2023/04/06 06:54:05;;;;;;;11.07;3.58;;;;;;;10.45;78.26;99654.91;4963246;28;20578;-56
2023/04/06 06:56:32;;;;;;;10.43;4.15;;;;;;;10.43;78.87;99658.34;4959154;28;20065;-56
2023/04/06 06:58:59;;;;;;;10.40;4.28;;;;;;;10.44;78.88;99655.75;4965879;28;20553;-56
2023/04/06 07:01:25;;;;;;;11.25;3.72;;;;;;;10.45;79.04;99657.50;4962017;28;20054;-52
2023/04/06 07:03:52;;;;;;;11.07;6.05;;;;;;;10.42;79.21;99662.66;4960539;28;20047;-56
2023/04/06 07:06:20;;;;;;;10.15;4.13;;;;;;;10.42;78.48;99667.84;4962705;28;20614;-56
2023/04/06 07:08:46;;;;;;;7.22;2.60;;;;;;;10.40;79.43;99664.38;4959604;28;20106;-56
2023/04/06 07:11:13;;;;;;;9.13;3.25;;;;;;;10.41;78.68;99668.72;4962619;28;20054;-53
2023/04/06 07:13:40;;;;;;;14.57;4.07;;;;;;;10.39;78.86;99670.44;4959490;28;20584;-54
2023/04/06 07:16:06;;;;;;;7.30;2.67;;;;;;;10.35;79.26;99663.56;4957418;28;20047;-60
2023/04/06 07:18:33;;;;;;;8.90;2.88;;;;;;;10.39;79.35;99666.13;4963893;28;20146;-57
2023/04/06 07:21:01;;;;;;;5.82;2.20;;;;;;;10.34;79.69;99667.03;4958734;28;20054;-58
2023/04/06 07:23:28;;;;;;;8.20;2.92;;;;;;;10.41;78.60;99664.38;4959815;28;20058;-57
2023/04/06 07:25:55;;;;;;;8.95;3.10;;;;;;;10.41;79.85;99663.53;4962812;28;20047;-54
2023/04/06 07:28:22;;;;;;;7.03;2.55;;;;;;;10.41;79.91;99666.13;4963497;28;20050;-56
2023/04/06 07:30:48;;;;;;;6.20;2.90;;;;;;;10.47;79.65;99671.28;4963900;28;20050;-60
2023/04/06 07:33:15;;;;;;;6.55;2.85;;;;;;;10.45;80.11;99673.03;4959809;28;20051;-57
2023/04/06 07:35:41;;;;;;;4.63;1.90;;;;;;;10.45;79.64;99673.03;4963731;28;20086;-50
2023/04/06 07:38:08;;;;;;;7.03;2.78;;;;;;;10.50;79.13;99681.59;4966165;28;20054;-53
2023/04/06 07:40:35;;;;;;;5.82;2.60;;;;;;;10.54;79.38;99678.13;4958284;28;20063;-53
2023/04/06 07:43:01;;;;;;;6.05;2.45;;;;;;;10.54;79.21;99682.47;4958531;28;20102;-60
2023/04/06 07:45:29;;;;;;;5.63;2.70;;;;;;;10.54;78.79;99683.28;4960967;28;20133;-52
2023/04/06 07:47:55;;;;;;;7.05;3.17;;;;;;;10.56;79.12;99692.78;4961785;28;20415;-49
2023/04/06 07:50:22;;;;;;;7.75;3.03;;;;;;;10.51;79.78;99688.50;4959125;28;20051;-54
2023/04/06 07:52:49;;;;;;;7.97;2.70;;;;;;;10.54;79.19;99698.84;4963841;28;20047;-50
2023/04/06 07:55:16;;;;;;;10.40;3.08;;;;;;;10.58;79.05;99693.63;4975461;28;20050;-53
2023/04/06 07:57:42;;;;;;;5.55;2.17;;;;;;;10.51;79.33;99691.09;4971629;28;20454;-54
2023/04/06 08:00:10;;;;;;;5.88;2.22;;;;;;;10.53;79.88;99699.72;4961834;28;20125;-57
2023/04/06 08:02:36;;;;;;;8.05;3.65;;;;;;;10.55;79.41;99697.13;4958459;28;20113;-51
2023/04/06 08:05:03;;;;;;;6.00;2.55;;;;;;;10.58;79.26;99698.81;4961354;28;20411;-51
2023/04/06 08:07:30;;;;;;;6.45;2.92;;;;;;;10.62;79.61;99700.50;4959557;28;20047;-50
2023/04/06 08:09:56;;;;;;;6.97;2.60;;;;;;;10.65;79.61;99691.00;4967364;28;20499;-55
2023/04/06 08:12:23;;;;;;;5.57;2.42;;;;;;;10.72;80.63;99690.91;4983352;28;20057;-55
2023/04/06 08:14:50;;;;;;;6.15;1.80;;;;;;;10.68;80.75;99700.47;4980090;28;20054;-58
2023/04/06 08:17:16;;;;;;;6.55;2.70;;;;;;;10.74;81.01;99694.38;4977580;28;20050;-49
2023/04/06 08:19:44;;;;;;;4.45;2.25;;;;;;;10.78;80.13;99707.25;4979048;28;20507;-56
2023/04/06 08:22:11;;;;;;;5.93;2.53;;;;;;;10.85;79.59;99704.63;4978154;28;20749;-53
2023/04/06 08:24:38;;;;;;;6.43;3.20;;;;;;;10.84;79.90;99700.31;4981753;28;20470;-53
2023/04/06 08:27:04;;;;;;;5.32;2.35;;;;;;;10.84;80.52;99705.50;4981810;28;20042;-52
2023/04/06 08:29:31;;;;;;;8.57;3.90;;;;;;;10.94;79.36;99707.13;4977512;28;20062;-56
2023/04/06 08:31:58;;;;;;;8.80;3.45;;;;;;;11.04;79.00;99707.88;4979351;28;20058;-53
2023/04/06 08:34:25;;;;;;;8.15;4.60;;;;;;;10.99;79.57;99710.53;4980882;28;20049;-54
2023/04/06 08:36:52;;;;;;;11.63;4.03;;;;;;;11.02;79.35;99715.66;4971154;28;20126;-53
2023/04/06 08:39:25;;;;;;;7.32;3.15;;;;;;;11.00;79.26;99720.03;4965140;28;20054;-57
2023/04/06 08:41:52;;;;;;;7.85;3.13;;;;;;;11.01;79.21;99720.91;4981974;28;20050;-56
2023/04/06 08:44:19;;;;;;;11.82;5.45;;;;;;;11.00;78.23;99725.22;4976926;28;20446;-57
2023/04/06 08:46:46;;;;;;;12.93;4.00;;;;;;;11.10;79.30;99728.56;4978994;28;20050;-58
2023/04/06 08:49:15;;;;;;;13.05;5.80;;;;;;;11.16;79.14;99727.66;4983735;28;20097;-58
2023/04/06 08:51:42;;;;;;;12.02;4.45;;;;;;;11.23;77.95;99729.31;4982832;28;20081;-54
2023/04/06 08:54:09;;;;;;;11.88;4.38;;;;;;;11.26;77.47;99733.59;4979827;28;20053;-53
2023/04/06 08:56:38;;;;;;;9.60;3.92;;;;;;;11.34;77.61;99733.53;4982052;28;20124;-59
2023/04/06 08:59:06;;;;;;;7.68;4.63;;;;;;;11.38;77.59;99730.84;4979126;28;20689;-55
2023/04/06 09:01:38;;;;;;;11.90;3.85;;;;;;;11.60;78.50;99732.34;4978034;28;20042;-59
2023/04/06 09:04:09;;;;;;;11.35;4.50;;;;;;;11.72;77.11;99720.97;4975025;28;20058;-56
2023/04/06 09:06:37;;;;;;;9.38;3.95;;;;;;;11.86;76.81;99718.19;4988472;28;20053;-55
2023/04/06 09:09:03;;;;;;;10.23;4.13;;;;;;;11.98;76.95;99717.16;4978256;28;20084;-52
2023/04/06 09:11:42;;;;;;;9.10;4.95;;;;;;;11.99;75.41;99716.28;4980164;28;20516;-55
2023/04/06 09:14:09;;;;;;;9.45;2.92;;;;;;;11.97;75.98;99716.31;4979757;28;20078;-53
2023/04/06 09:16:41;;;;;;;12.48;4.68;;;;;;;12.03;75.34;99716.19;4980738;28;20147;-59
2023/04/06 09:19:09;;;;;;;11.18;3.80;;;;;;;12.07;75.87;99728.31;4978103;28;20054;-58
2023/04/06 09:21:37;;;;;;;12.23;5.50;;;;;;;12.12;75.56;99732.59;4978978;28;20498;-56
2023/04/06 09:24:06;;;;;;;13.70;5.30;;;;;;;12.19;74.40;99731.59;4974816;28;20116;-60
2023/04/06 09:26:46;;;;;;;10.10;4.22;;;;;;;12.26;74.33;99738.41;4980348;28;20050;-56
2023/04/06 09:29:26;;;;;;;11.38;4.47;;;;;;;12.40;75.14;99740.81;4976543;28;20085;-56
2023/04/06 09:32:03;;;;;;;13.73;4.93;;;;;;;12.53;73.98;99741.47;4953683;28;20063;-56
2023/04/06 09:34:30;;;;;;;8.68;3.58;;;;;;;12.60;72.88;99737.06;4961883;28;20161;-54
2023/04/06 09:36:58;;;;;;;7.78;3.45;;;;;;;12.60;72.86;99752.66;4960101;28;20070;-53
2023/04/06 09:39:25;;;;;;;8.75;3.10;;;;;;;12.51;72.72;99758.84;4962681;28;20506;-53
2023/04/06 09:41:54;;;;;;;10.30;2.45;;;;;;;12.42;71.34;99753.78;4965841;28;20128;-55
2023/04/06 09:44:21;;;;;;;7.35;3.33;;;;;;;12.25;71.14;99746.22;4961516;28;20054;-56
2023/04/06 09:46:48;;;;;;;5.55;2.72;;;;;;;12.20;72.10;99760.13;4965681;28;20050;-57
2023/04/06 09:49:28;;;;;;;8.75;4.07;;;;;;;12.14;71.45;99754.19;4964628;28;20105;-55
2023/04/06 09:51:59;;;;;;;6.03;3.28;;;;;;;12.06;70.68;99751.69;5001221;28;20050;-53
2023/04/06 09:54:28;;;;;;;5.93;2.55;;;;;;;12.00;70.92;99757.81;4974114;28;20058;-56
2023/04/06 10:00:11;;;;;;;7.03;3.92;;;;;;;12.20;70.71;99764.50;5043202;27;20398;-59
2023/04/06 10:02:46;;;;;;;7.03;2.50;;;;;;;12.29;70.21;99764.34;5012423;28;20066;-52
2023/04/06 10:05:21;;;;;;;11.95;4.15;;;;;;;12.38;70.09;99763.34;5018436;28;20073;-58
2023/04/06 10:07:52;;;;;;;7.43;3.67;;;;;;;12.54;69.70;99774.38;5014346;28;20085;-54
2023/04/06 10:10:28;;;;;;;8.50;2.53;;;;;;;12.59;69.70;99776.88;5009228;28;20053;-48
2023/04/06 10:12:56;;;;;;;3.47;1.35;;;;;;;12.63;68.33;99770.75;5018069;28;20677;-54
2023/04/06 10:15:24;;;;;;;3.85;1.63;;;;;;;12.64;68.46;99772.50;5014683;28;20073;-57
2023/04/06 10:17:51;;;;;;;3.60;1.63;;;;;;;12.71;68.10;99773.25;5016941;28;20049;-58
2023/04/06 10:20:25;;;;;;;4.80;2.10;;;;;;;12.91;67.22;99779.88;5016141;28;20055;-59
2023/04/06 10:22:59;;;;;;;3.33;1.67;;;;;;;12.98;67.21;99774.53;5013676;28;20081;-58
2023/04/06 10:25:27;;;;;;;4.63;1.60;;;;;;;12.95;65.49;99778.94;5017152;28;20073;-56
2023/04/06 10:28:05;;;;;;;6.35;2.17;;;;;;;12.82;66.33;99784.34;5015360;28;20708;-59
2023/04/06 10:30:34;;;;;;;7.57;2.20;;;;;;;12.81;67.05;99792.16;5017864;28;20069;-59
2023/04/06 10:33:13;;;;;;;5.30;2.60;;;;;;;12.94;67.64;99792.81;5014399;28;20086;-55
2023/04/06 10:35:40;;;;;;;8.60;3.22;;;;;;;13.24;68.74;99790.53;5013279;28;20053;-55
2023/04/06 10:38:07;;;;;;;6.43;3.30;;;;;;;13.45;67.18;99797.09;5016857;28;20070;-56
2023/04/06 10:40:37;;;;;;;5.88;2.53;;;;;;;13.64;66.32;99790.75;5012222;28;20058;-58
2023/04/06 10:43:09;;;;;;;7.13;2.28;;;;;;;13.79;66.13;99792.16;5016354;28;20053;-57
2023/04/06 10:45:37;;;;;;;5.13;1.67;;;;;;;14.08;65.72;99791.56;5013924;28;20049;-56
2023/04/06 10:48:16;;;;;;;4.00;1.80;;;;;;;14.32;63.93;99791.91;5014358;28;20049;-58
2023/04/06 10:50:47;;;;;;;4.72;1.45;;;;;;;14.62;64.28;99799.91;5012791;28;20564;-54
2023/04/06 10:53:23;;;;;;;4.35;2.50;;;;;;;14.80;63.02;99805.63;5013989;28;20077;-54
2023/04/06 10:55:51;;;;;;;4.53;1.88;;;;;;;14.94;62.06;99794.00;5009402;28;20050;-56
2023/04/06 10:58:25;;;;;;;6.32;2.40;;;;;;;15.05;62.36;99802.41;5014598;28;20069;-53
2023/04/06 11:00:52;;;;;;;5.03;2.38;;;;;;;15.19;61.48;99798.59;5015949;28;20049;-59
2023/04/06 11:03:18;;;;;;;4.32;1.35;;;;;;;15.23;60.59;99798.47;5012201;28;20686;-58
2023/04/06 11:05:47;;;;;;;5.13;2.22;;;;;;;15.39;60.27;99791.09;5030501;28;21008;-54
2023/04/06 11:08:31;;;;;;;4.55;2.60;;;;;;;15.50;59.83;99792.56;5009092;28;20583;-58
2023/04/06 11:11:10;;;;;;;4.43;2.35;;;;;;;15.58;58.93;99798.44;4998006;28;20077;-59
2023/04/06 11:13:40;;;;;;;5.72;2.25;;;;;;;15.57;58.81;99799.31;4998807;28;20077;-54
2023/04/06 11:16:15;;;;;;;3.95;1.85;;;;;;;15.48;58.81;99804.78;4997982;28;20140;-60
2023/04/06 11:19:03;;;;;;;2.92;2.05;;;;;;;15.37;57.68;99811.13;4997562;28;20049;-55
2023/04/06 11:21:48;;;;;;;5.30;2.92;;;;;;;15.36;58.01;99799.00;4995067;28;20438;-53
2023/04/06 11:26:58;;;;;;;7.13;4.47;;;;;;;15.12;57.73;99806.56;5045843;27;20399;-59
2023/04/06 11:29:27;;;;;;;7.97;5.78;;;;;;;15.02;58.31;99805.09;5012822;28;20137;-58
2023/04/06 11:31:59;;;;;;;6.95;4.07;;;;;;;14.80;58.17;99802.16;4994510;28;20148;-57
2023/04/06 11:34:28;;;;;;;5.45;3.67;;;;;;;14.63;57.25;99812.06;5040662;28;20567;-58
2023/04/06 11:36:57;;;;;;;3.22;2.65;;;;;;;14.50;58.32;99808.03;5007716;28;20080;-56
2023/04/06 11:39:25;;;;;;;4.75;4.15;;;;;;;14.37;58.24;99816.13;4997013;28;20054;-60
2023/04/06 11:41:54;;;;;;;6.82;4.50;;;;;;;14.32;59.18;99807.53;5018641;28;20452;-56